Time;durP1;ratioP1;P1;durP2;ratioP2;P2;SDS_P1;SDS_P2;PMS_P1;PMS_P2;Temp;Humidity;BMP_temperature;BMP_pressure;BME280_temperature;BME280_humidity;BME280_pressure;Samples;Min_cycle;Max_cycle;Signal;HPM_P1;HPM_P2
2022/02/20 00:00:54;;;;;;;3.80;2.03;;;8.60;79.80;;;;;;10437795;28;20255;-79
2022/02/20 00:05:56;;;;;;;5.73;2.60;;;8.60;80.40;;;;;;10445435;28;20227;-79
2022/02/20 00:10:58;;;;;;;5.10;1.97;;;8.60;80.70;;;;;;10438014;28;20217;-79
2022/02/20 00:16:02;;;;;;;4.93;2.37;;;8.40;81.50;;;;;;10444155;28;20197;-80
2022/02/20 00:21:04;;;;;;;5.03;2.20;;;8.30;83.40;;;;;;10461666;28;20235;-79
2022/02/20 00:26:06;;;;;;;2.70;1.90;;;8.30;84.70;;;;;;10422577;28;20328;-79
2022/02/20 00:31:10;;;;;;;5.90;2.10;;;8.40;86.00;;;;;;10412109;28;20226;-79
2022/02/20 00:36:12;;;;;;;3.70;1.93;;;8.40;85.00;;;;;;10405134;28;20196;-79
2022/02/20 00:41:14;;;;;;;5.77;2.70;;;8.40;84.80;;;;;;10434284;28;20222;-79
2022/02/20 00:46:18;;;;;;;2.57;1.90;;;8.20;85.90;;;;;;10428013;28;20247;-81
2022/02/20 00:51:23;;;;;;;7.97;2.40;;;8.10;88.50;;;;;;10437199;28;20217;-80
2022/02/20 00:56:25;;;;;;;4.57;2.53;;;8.10;87.50;;;;;;10417140;28;20244;-80
2022/02/20 01:01:32;;;;;;;6.97;2.30;;;8.00;89.10;;;;;;10425526;28;20224;-80
2022/02/20 01:06:36;;;;;;;4.03;2.63;;;7.90;89.50;;;;;;10415915;28;20213;-79
2022/02/20 01:11:44;;;;;;;5.97;2.13;;;7.90;89.90;;;;;;10432961;28;20660;-80
2022/02/20 01:16:48;;;;;;;3.50;1.77;;;8.00;89.70;;;;;;10429997;28;20209;-82
2022/02/20 01:22:01;;;;;;;5.30;2.63;;;7.90;90.10;;;;;;10397241;28;20311;-80
2022/02/20 01:27:06;;;;;;;2.60;2.00;;;7.90;90.00;;;;;;10435837;28;20264;-79
2022/02/20 01:32:14;;;;;;;4.50;2.20;;;7.80;90.80;;;;;;10432543;28;20216;-79
2022/02/20 01:37:16;;;;;;;3.90;1.93;;;7.80;90.10;;;;;;10427018;28;20193;-79
2022/02/20 01:42:19;;;;;;;5.73;1.90;;;7.80;90.40;;;;;;10410764;28;20221;-80
2022/02/20 01:47:24;;;;;;;6.30;2.17;;;7.80;90.30;;;;;;10423401;28;20221;-79
2022/02/20 01:52:27;;;;;;;8.07;2.40;;;7.70;90.40;;;;;;10426006;28;20247;-80
2022/02/20 01:57:36;;;;;;;3.70;2.20;;;7.70;90.50;;;;;;10432817;28;20227;-79
2022/02/20 02:02:50;;;;;;;8.03;2.17;;;7.70;90.50;;;;;;10427383;28;20256;-80
2022/02/20 02:08:22;;;;;;;6.27;2.50;;;7.70;90.40;;;;;;10434402;28;20570;-79
2022/02/20 02:13:43;;;;;;;7.40;2.17;;;7.70;90.80;;;;;;10448272;28;20362;-79
2022/02/20 02:19:01;;;;;;;7.73;2.67;;;7.70;91.10;;;;;;10423307;28;20208;-80
2022/02/20 02:24:09;;;;;;;2.53;1.93;;;7.70;91.50;;;;;;10511498;22;20291;-86
2022/02/20 02:29:38;;;;;;;4.07;2.27;;;7.80;91.00;;;;;;10524092;28;20268;-86
2022/02/20 02:34:40;;;;;;;4.00;1.87;;;7.80;91.40;;;;;;10462165;28;20242;-86
2022/02/20 02:39:44;;;;;;;4.10;2.07;;;7.80;91.00;;;;;;10439927;28;20196;-86
2022/02/20 02:44:46;;;;;;;3.47;1.87;;;7.80;91.00;;;;;;10465456;28;20247;-85
2022/02/20 02:49:49;;;;;;;2.30;1.87;;;7.80;91.60;;;;;;10459196;28;20214;-85
2022/02/20 02:54:52;;;;;;;3.90;2.07;;;7.90;91.60;;;;;;10493203;28;20196;-85
2022/02/20 02:59:56;;;;;;;4.00;2.20;;;8.00;91.20;;;;;;10467574;28;20260;-86
2022/02/20 03:05:03;;;;;;;2.60;1.83;;;8.00;91.70;;;;;;10489195;28;20266;-86
2022/02/20 03:10:08;;;;;;;4.07;1.97;;;8.00;91.60;;;;;;10465564;28;20229;-86
2022/02/20 03:15:12;;;;;;;4.87;2.10;;;8.00;92.00;;;;;;10452669;28;20209;-86
2022/02/20 03:20:15;;;;;;;1.53;1.43;;;8.10;91.90;;;;;;10441821;28;20232;-86
2022/02/20 03:25:22;;;;;;;2.43;1.80;;;8.10;91.80;;;;;;10458750;28;20224;-86
2022/02/20 03:30:28;;;;;;;3.13;1.57;;;8.10;92.20;;;;;;10475212;28;20217;-86
2022/02/20 03:35:32;;;;;;;3.07;1.97;;;8.20;92.20;;;;;;10443401;28;20193;-86
2022/02/20 03:40:40;;;;;;;2.07;1.97;;;8.20;92.10;;;;;;10435808;28;20228;-86
2022/02/20 03:45:43;;;;;;;1.90;1.80;;;8.20;92.60;;;;;;10425803;28;20283;-86
2022/02/20 03:50:48;;;;;;;2.33;1.70;;;8.10;92.90;;;;;;10466358;28;20246;-86
2022/02/20 03:55:52;;;;;;;3.17;1.70;;;8.20;92.30;;;;;;10496986;28;20201;-86
2022/02/20 04:00:55;;;;;;;2.37;2.17;;;8.20;92.80;;;;;;10508005;28;20213;-86
2022/02/20 04:06:06;;;;;;;2.20;2.00;;;8.20;93.90;;;;;;10513552;28;20224;-85
2022/02/20 04:11:09;;;;;;;2.70;1.60;;;8.20;94.40;;;;;;10496546;28;20307;-86
2022/02/20 04:16:23;;;;;;;2.77;1.77;;;8.10;95.10;;;;;;10466327;28;20210;-86
2022/02/20 04:21:29;;;;;;;2.20;1.47;;;8.00;95.40;;;;;;10454220;28;20294;-86
2022/02/20 04:26:41;;;;;;;3.27;2.10;;;8.10;95.10;;;;;;10472245;28;20217;-86
2022/02/20 04:31:50;;;;;;;2.60;1.53;;;8.10;96.10;;;;;;10431959;28;20231;-86
2022/02/20 04:36:54;;;;;;;1.90;1.47;;;8.20;96.30;;;;;;10438729;28;20205;-87
2022/02/20 04:41:58;;;;;;;2.13;1.60;;;8.20;95.70;;;;;;10444849;28;20221;-86
2022/02/20 04:47:13;;;;;;;1.70;1.60;;;8.20;95.60;;;;;;10443811;28;20262;-85
2022/02/20 04:52:15;;;;;;;2.40;1.33;;;8.20;96.20;;;;;;10458558;28;20224;-85
2022/02/20 04:57:45;;;;;;;1.80;1.70;;;8.20;96.20;;;;;;10460329;28;20224;-85
2022/02/20 05:02:53;;;;;;;2.20;1.70;;;8.30;96.10;;;;;;10456369;28;20316;-86
2022/02/20 05:07:56;;;;;;;3.60;1.50;;;8.20;96.00;;;;;;10456766;28;20668;-86
2022/02/20 05:12:59;;;;;;;1.37;1.27;;;8.20;96.40;;;;;;10456587;28;20220;-86
2022/02/20 05:18:02;;;;;;;2.13;1.40;;;8.10;97.10;;;;;;10479221;28;20207;-84
2022/02/20 05:23:05;;;;;;;1.57;1.47;;;8.00;97.60;;;;;;10482364;28;20223;-85
2022/02/20 05:28:09;;;;;;;3.33;1.73;;;8.00;97.70;;;;;;10448922;28;20559;-84
2022/02/20 05:33:14;;;;;;;3.40;2.13;;;7.90;98.10;;;;;;10457417;28;20217;-86
2022/02/20 05:38:17;;;;;;;3.53;1.70;;;7.90;98.20;;;;;;10458473;28;20628;-82
2022/02/20 05:43:21;;;;;;;1.60;1.40;;;7.90;98.70;;;;;;10480822;28;20224;-86
2022/02/20 05:48:25;;;;;;;3.40;1.93;;;7.90;98.80;;;;;;10461235;28;20244;-87
2022/02/20 05:53:40;;;;;;;3.17;1.60;;;7.80;98.50;;;;;;10475760;28;20242;-85
2022/02/20 05:58:44;;;;;;;4.33;2.00;;;7.70;99.20;;;;;;10479882;28;20203;-86
2022/02/20 06:03:46;;;;;;;2.43;2.00;;;7.60;99.00;;;;;;10474880;28;20223;-86
2022/02/20 06:09:06;;;;;;;3.07;2.50;;;7.40;99.70;;;;;;10484627;28;20230;-86
2022/02/20 06:14:22;;;;;;;2.57;1.87;;;7.40;99.90;;;;;;10486819;28;20217;-86
2022/02/20 06:19:35;;;;;;;1.53;1.43;;;7.40;99.90;;;;;;10482820;28;20242;-85
2022/02/20 06:24:45;;;;;;;1.67;1.57;;;7.40;99.90;;;;;;10507881;28;20212;-86
2022/02/20 06:30:00;;;;;;;1.50;1.40;;;7.50;99.90;;;;;;10439851;28;20224;-86
2022/02/20 06:35:04;;;;;;;1.70;1.60;;;7.60;99.90;;;;;;10452371;28;20232;-86
2022/02/20 06:40:08;;;;;;;3.13;1.50;;;7.80;99.90;;;;;;10448769;28;20582;-85
2022/02/20 06:45:14;;;;;;;1.20;1.10;;;7.80;99.90;;;;;;10452320;28;20278;-86
2022/02/20 06:50:34;;;;;;;2.70;1.40;;;8.00;99.90;;;;;;10484924;28;20219;-86
2022/02/20 06:55:57;;;;;;;1.43;1.33;;;8.00;99.00;;;;;;10458589;28;20818;-86
2022/02/20 07:01:01;;;;;;;1.40;1.30;;;8.10;99.90;;;;;;10470994;28;20223;-85
2022/02/20 07:06:07;;;;;;;1.47;1.37;;;8.20;98.90;;;;;;10478086;28;20683;-85
2022/02/20 07:11:10;;;;;;;1.27;1.27;;;8.30;98.90;;;;;;10488871;28;20220;-86
2022/02/20 07:16:13;;;;;;;2.30;0.90;;;8.40;98.60;;;;;;10442667;28;20197;-85
2022/02/20 07:21:16;;;;;;;1.30;1.20;;;8.40;98.60;;;;;;10486458;28;20263;-86
2022/02/20 07:26:18;;;;;;;1.60;1.50;;;8.40;97.80;;;;;;10444361;28;20240;-86
2022/02/20 07:31:22;;;;;;;1.70;1.60;;;8.50;97.80;;;;;;10460069;28;20227;-86
2022/02/20 07:36:26;;;;;;;1.87;1.50;;;8.50;97.50;;;;;;10497565;28;20223;-86
2022/02/20 07:41:31;;;;;;;2.53;2.33;;;8.50;98.40;;;;;;10442758;28;20224;-86
2022/02/20 07:46:35;;;;;;;1.50;1.40;;;8.50;98.30;;;;;;10480226;28;20248;-86
2022/02/20 07:51:37;;;;;;;1.60;1.40;;;8.60;98.20;;;;;;10470558;28;20603;-87
2022/02/20 07:56:42;;;;;;;1.70;1.60;;;8.70;97.90;;;;;;10460162;28;20205;-86
2022/02/20 08:01:47;;;;;;;1.37;1.30;;;8.70;97.90;;;;;;10495060;28;20225;-85
2022/02/20 08:06:53;;;;;;;2.57;1.37;;;8.80;97.60;;;;;;10450526;28;20654;-86
2022/02/20 08:11:55;;;;;;;1.57;1.40;;;8.80;97.70;;;;;;10438423;28;20221;-85
2022/02/20 08:16:59;;;;;;;1.70;1.60;;;8.90;97.10;;;;;;10459900;28;20196;-86
2022/02/20 08:22:01;;;;;;;1.67;1.57;;;9.00;97.40;;;;;;10470189;22;20229;-82
2022/02/20 08:27:04;;;;;;;1.40;1.30;;;9.10;96.80;;;;;;10452048;28;20221;-82
2022/02/20 08:32:09;;;;;;;2.03;1.50;;;9.10;96.30;;;;;;10422341;28;20233;-82
2022/02/20 08:37:11;;;;;;;2.60;1.57;;;9.10;96.80;;;;;;10438909;28;20217;-81
2022/02/20 08:42:13;;;;;;;3.73;1.70;;;9.20;96.60;;;;;;10440872;28;20238;-81
2022/02/20 08:47:17;;;;;;;2.60;1.80;;;9.30;96.10;;;;;;10434057;28;20304;-82
2022/02/20 08:52:19;;;;;;;1.97;1.30;;;9.40;96.50;;;;;;10414414;28;20232;-82
2022/02/20 08:57:21;;;;;;;1.90;1.80;;;9.30;96.00;;;;;;10424499;28;20281;-82
2022/02/20 09:02:25;;;;;;;1.60;1.50;;;9.40;96.30;;;;;;10410253;28;20311;-81
2022/02/20 09:07:27;;;;;;;1.50;1.40;;;9.60;96.50;;;;;;10441556;28;20603;-82
2022/02/20 09:12:29;;;;;;;1.83;1.40;;;9.80;96.60;;;;;;10417666;28;20240;-80
2022/02/20 09:17:33;;;;;;;1.60;1.33;;;10.10;95.90;;;;;;10411078;28;20197;-82
2022/02/20 09:22:35;;;;;;;2.30;1.50;;;10.30;95.00;;;;;;10364510;28;1104225;-82
2022/02/20 09:27:37;;;;;;;2.13;1.63;;;10.30;94.20;;;;;;10411180;28;20618;-82
2022/02/20 09:32:41;;;;;;;1.33;1.20;;;10.40;94.80;;;;;;10405464;28;20300;-81
2022/02/20 09:37:43;;;;;;;1.67;1.50;;;10.40;94.80;;;;;;10459882;28;20221;-81
2022/02/20 09:42:45;;;;;;;1.57;1.20;;;10.50;94.60;;;;;;10410166;28;20217;-81
2022/02/20 09:47:49;;;;;;;1.60;1.50;;;10.60;94.40;;;;;;10430740;28;20210;-82
2022/02/20 09:52:51;;;;;;;2.13;1.83;;;10.70;94.10;;;;;;10397670;28;20242;-81
2022/02/20 09:57:53;;;;;;;1.53;1.43;;;10.70;94.50;;;;;;10404327;28;20194;-84
2022/02/20 10:03:01;;;;;;;1.60;1.30;;;10.80;94.30;;;;;;10390620;28;20244;-82
2022/02/20 10:08:18;;;;;;;1.40;1.40;;;10.80;93.60;;;;;;10406359;28;20333;-84
2022/02/20 10:13:27;;;;;;;1.70;1.60;;;10.80;94.00;;;;;;10427032;28;20222;-83
2022/02/20 10:18:31;;;;;;;1.50;1.40;;;10.90;94.00;;;;;;10412531;28;20190;-83
2022/02/20 10:23:53;;;;;;;1.20;1.20;;;10.90;93.60;;;;;;10444346;28;20221;-80
2022/02/20 10:29:18;;;;;;;1.47;1.37;;;10.90;93.80;;;;;;10417529;28;20221;-79
2022/02/20 10:34:24;;;;;;;2.00;1.70;;;11.00;94.00;;;;;;10421037;28;20205;-81
2022/02/20 10:39:28;;;;;;;1.53;1.43;;;11.10;93.90;;;;;;10415755;28;21033;-80
2022/02/20 10:44:31;;;;;;;1.93;1.70;;;11.30;93.30;;;;;;10398964;28;20222;-82
2022/02/20 10:49:34;;;;;;;1.57;1.47;;;11.30;93.00;;;;;;10386757;28;20217;-81
2022/02/20 10:54:36;;;;;;;1.50;1.40;;;11.40;92.70;;;;;;10398127;28;20234;-79
2022/02/20 10:59:49;;;;;;;1.60;1.50;;;11.30;93.10;;;;;;10409316;28;20201;-80
2022/02/20 11:04:53;;;;;;;1.53;1.43;;;11.40;92.60;;;;;;10399578;28;20584;-80
2022/02/20 11:09:55;;;;;;;2.20;1.30;;;11.50;92.60;;;;;;10415934;28;20293;-80
2022/02/20 11:14:58;;;;;;;1.50;1.40;;;11.50;92.90;;;;;;10402064;28;20240;-79
2022/02/20 11:20:04;;;;;;;1.40;1.30;;;11.60;92.50;;;;;;10395956;28;20259;-81
2022/02/20 11:25:09;;;;;;;1.37;1.33;;;11.60;91.90;;;;;;10406627;28;20232;-80
2022/02/20 11:30:12;;;;;;;1.70;1.60;;;11.50;92.30;;;;;;10433810;28;20216;-80
2022/02/20 11:35:17;;;;;;;1.47;1.37;;;11.50;92.80;;;;;;10430181;28;20236;-80
2022/02/20 11:40:20;;;;;;;1.50;1.40;;;11.50;92.40;;;;;;10409710;28;20205;-81
2022/02/20 11:45:23;;;;;;;1.80;1.70;;;11.60;92.10;;;;;;10411862;28;20221;-80
2022/02/20 11:50:37;;;;;;;1.23;1.23;;;11.60;92.10;;;;;;10419159;28;20654;-81
2022/02/20 11:55:42;;;;;;;1.80;1.30;;;11.60;92.30;;;;;;10406182;28;20293;-80
2022/02/20 12:01:16;;;;;;;1.87;1.33;;;11.60;92.20;;;;;;10415558;28;20202;-81
2022/02/20 12:06:27;;;;;;;1.70;1.60;;;11.60;92.00;;;;;;10439032;28;20217;-82
2022/02/20 12:11:40;;;;;;;1.27;1.17;;;11.60;92.60;;;;;;10426707;28;20304;-81
2022/02/20 12:16:48;;;;;;;1.80;1.20;;;11.70;92.30;;;;;;10438323;28;20189;-82
2022/02/20 12:21:58;;;;;;;1.30;1.30;;;11.80;92.00;;;;;;10418874;28;20708;-82
2022/02/20 12:27:01;;;;;;;1.50;1.40;;;11.70;92.20;;;;;;10448487;28;20225;-82
2022/02/20 12:32:10;;;;;;;2.10;1.40;;;11.80;92.30;;;;;;10417150;28;20233;-80
2022/02/20 12:37:14;;;;;;;1.40;1.30;;;11.80;92.50;;;;;;10405440;28;20202;-82
2022/02/20 12:42:16;;;;;;;2.30;1.83;;;11.90;92.40;;;;;;10396969;28;20689;-81
2022/02/20 12:47:19;;;;;;;1.70;1.60;;;11.90;92.30;;;;;;10431773;28;20646;-81
2022/02/20 12:52:22;;;;;;;2.50;1.50;;;11.90;92.60;;;;;;10438489;28;20981;-82
2022/02/20 12:57:36;;;;;;;2.70;1.53;;;12.00;92.30;;;;;;10410256;28;20285;-82
2022/02/20 13:02:41;;;;;;;1.53;1.30;;;12.00;92.20;;;;;;10427511;28;20275;-80
2022/02/20 13:07:50;;;;;;;1.70;1.60;;;11.90;92.10;;;;;;10422610;28;20308;-81
2022/02/20 13:12:57;;;;;;;1.40;1.30;;;11.90;92.80;;;;;;10410455;28;20228;-80
2022/02/20 13:18:07;;;;;;;1.60;1.50;;;11.90;92.40;;;;;;10404024;28;20190;-82
2022/02/20 13:23:34;;;;;;;1.77;1.40;;;12.10;92.30;;;;;;10415037;28;20257;-81
2022/02/20 13:28:39;;;;;;;2.70;1.40;;;12.20;92.60;;;;;;10379549;28;20218;-82
2022/02/20 13:33:46;;;;;;;1.30;1.20;;;12.30;92.20;;;;;;10436617;28;20232;-80
2022/02/20 13:39:02;;;;;;;4.17;1.30;;;12.20;92.40;;;;;;10398490;28;20720;-81
2022/02/20 13:44:06;;;;;;;2.73;1.30;;;12.10;92.30;;;;;;10424155;28;20227;-81
2022/02/20 13:49:09;;;;;;;1.20;1.17;;;12.10;92.50;;;;;;10432500;28;20580;-81
2022/02/20 13:54:16;;;;;;;1.30;1.30;;;12.20;92.80;;;;;;10421704;28;20235;-81
2022/02/20 13:59:20;;;;;;;1.40;1.30;;;12.20;92.50;;;;;;10411796;28;20205;-81
2022/02/20 14:04:29;;;;;;;1.53;1.43;;;12.10;92.70;;;;;;10397637;28;20220;-81
2022/02/20 14:09:36;;;;;;;1.40;1.40;;;12.00;93.10;;;;;;10427749;28;20237;-81
2022/02/20 14:14:38;;;;;;;3.23;1.50;;;11.90;93.10;;;;;;10412245;28;20727;-80
2022/02/20 14:19:44;;;;;;;1.33;1.23;;;11.90;93.30;;;;;;10412408;28;20209;-81
2022/02/20 14:24:59;;;;;;;1.60;1.50;;;11.80;93.50;;;;;;10406847;28;20233;-80
2022/02/20 14:30:01;;;;;;;1.60;1.50;;;11.90;93.30;;;;;;10407694;28;20271;-80
2022/02/20 14:35:17;;;;;;;1.60;1.50;;;11.80;93.40;;;;;;10441428;28;20753;-80
2022/02/20 14:40:20;;;;;;;1.50;1.47;;;11.90;93.50;;;;;;10407624;28;21683;-80
2022/02/20 14:45:24;;;;;;;1.47;1.33;;;11.90;94.20;;;;;;10423482;28;20721;-79
2022/02/20 14:50:28;;;;;;;1.70;1.60;;;12.10;93.70;;;;;;10408596;28;20383;-80
2022/02/20 14:55:31;;;;;;;1.50;1.40;;;12.10;93.80;;;;;;10396530;28;20573;-80
2022/02/20 15:00:35;;;;;;;1.50;1.40;;;12.00;94.10;;;;;;10433390;28;20201;-80
2022/02/20 15:05:39;;;;;;;1.80;1.40;;;12.10;93.70;;;;;;10390579;28;20608;-80
2022/02/20 15:10:43;;;;;;;1.60;1.40;;;12.00;93.40;;;;;;10413368;28;20721;-80
2022/02/20 15:15:45;;;;;;;1.50;1.40;;;11.90;93.80;;;;;;10438097;28;20228;-79
2022/02/20 15:20:50;;;;;;;1.70;1.60;;;11.90;93.50;;;;;;10407786;28;20205;-79
2022/02/20 15:25:56;;;;;;;1.27;1.27;;;11.80;93.90;;;;;;10410743;28;20222;-79
2022/02/20 15:30:58;;;;;;;1.80;1.67;;;11.70;93.80;;;;;;10418835;28;20224;-79
2022/02/20 15:36:00;;;;;;;2.03;1.90;;;11.70;93.90;;;;;;10398091;28;20216;-81
2022/02/20 15:41:04;;;;;;;1.60;1.50;;;11.70;93.80;;;;;;10414461;28;20665;-80
2022/02/20 15:46:06;;;;;;;1.93;1.40;;;11.60;94.30;;;;;;10405077;28;20202;-81
2022/02/20 15:51:08;;;;;;;1.67;1.57;;;11.60;94.00;;;;;;10420252;28;20205;-82
2022/02/20 15:56:15;;;;;;;1.40;1.30;;;11.60;94.20;;;;;;10402465;28;20212;-81
2022/02/20 16:01:29;;;;;;;1.43;1.40;;;11.60;94.10;;;;;;10397957;28;20221;-80
2022/02/20 16:06:31;;;;;;;1.73;1.63;;;11.50;94.00;;;;;;10386587;28;20226;-81
2022/02/20 16:11:37;;;;;;;1.57;1.43;;;11.40;94.20;;;;;;10429110;28;20880;-79
2022/02/20 16:16:39;;;;;;;1.90;1.80;;;11.40;94.20;;;;;;10436058;28;20185;-81
2022/02/20 16:21:41;;;;;;;2.43;1.80;;;11.20;94.30;;;;;;10401554;28;20233;-82
2022/02/20 16:26:46;;;;;;;2.20;1.80;;;11.10;94.60;;;;;;10419944;28;20217;-81
2022/02/20 16:31:49;;;;;;;1.90;1.80;;;11.00;94.80;;;;;;10412440;28;20317;-80
2022/02/20 16:36:52;;;;;;;1.60;1.50;;;11.00;95.10;;;;;;10428186;28;20200;-80
2022/02/20 16:41:55;;;;;;;1.40;1.30;;;10.90;95.10;;;;;;10425604;28;20677;-79
2022/02/20 16:46:59;;;;;;;1.53;1.23;;;10.80;95.30;;;;;;10413201;28;20221;-79
2022/02/20 16:52:01;;;;;;;1.30;1.20;;;10.80;95.40;;;;;;10404588;28;20213;-79
2022/02/20 16:57:05;;;;;;;2.03;1.80;;;10.80;95.50;;;;;;10418932;28;20205;-81
2022/02/20 17:02:08;;;;;;;1.87;1.50;;;10.80;95.40;;;;;;10453104;28;20276;-79
2022/02/20 17:07:10;;;;;;;1.30;1.30;;;10.80;95.70;;;;;;10409890;28;20228;-78
2022/02/20 17:12:15;;;;;;;1.40;1.30;;;10.90;95.40;;;;;;10424013;28;20225;-79
2022/02/20 17:17:18;;;;;;;1.33;1.23;;;10.90;95.40;;;;;;10401357;28;20221;-79
2022/02/20 17:22:20;;;;;;;1.20;1.10;;;10.90;95.40;;;;;;10432548;28;20225;-78
2022/02/20 17:27:24;;;;;;;1.57;1.47;;;11.00;95.30;;;;;;10418991;28;20221;-80
2022/02/20 17:32:26;;;;;;;1.40;1.30;;;11.00;95.60;;;;;;10440157;28;20217;-79
2022/02/20 17:37:29;;;;;;;1.50;1.40;;;11.10;95.40;;;;;;10408117;28;20201;-80
2022/02/20 17:42:33;;;;;;;2.20;1.40;;;11.10;95.60;;;;;;10413682;28;20529;-79
2022/02/20 17:47:35;;;;;;;1.57;1.30;;;11.10;95.20;;;;;;10425788;28;20236;-82
2022/02/20 17:52:37;;;;;;;1.50;1.40;;;11.10;95.40;;;;;;10447482;28;20231;-80
2022/02/20 17:57:41;;;;;;;1.37;1.33;;;11.10;95.30;;;;;;10417720;28;20633;-78
2022/02/20 18:02:43;;;;;;;1.20;1.20;;;11.00;95.90;;;;;;10439283;28;20351;-79
2022/02/20 18:07:46;;;;;;;1.70;1.60;;;10.90;96.00;;;;;;10423730;28;20241;-78
2022/02/20 18:12:50;;;;;;;1.67;1.57;;;10.90;95.80;;;;;;10403871;28;20279;-79
2022/02/20 18:17:52;;;;;;;1.43;1.33;;;10.70;95.50;;;;;;10404916;28;20276;-79
2022/02/20 18:22:58;;;;;;;1.70;1.60;;;10.70;96.00;;;;;;10413010;28;20221;-78
2022/02/20 18:28:02;;;;;;;1.40;1.30;;;10.70;96.30;;;;;;10436826;28;20870;-78
2022/02/20 18:33:04;;;;;;;2.60;2.50;;;10.80;96.10;;;;;;10401667;28;20236;-79
2022/02/20 18:38:07;;;;;;;1.60;1.60;;;10.80;96.50;;;;;;10456650;28;20209;-78
2022/02/20 18:43:11;;;;;;;1.40;1.30;;;10.80;96.60;;;;;;10423578;28;20226;-78
2022/02/20 18:48:14;;;;;;;1.90;1.40;;;10.80;96.70;;;;;;10401570;28;20633;-79
2022/02/20 18:53:16;;;;;;;1.40;1.30;;;10.90;96.70;;;;;;10374865;28;20312;-79
2022/02/20 18:58:20;;;;;;;2.03;1.30;;;10.90;96.40;;;;;;10409436;28;20193;-78
2022/02/20 19:09:25;;;;;;;2.93;1.63;;;10.90;96.00;;;;;;10224401;28;20230;-80
2022/02/20 19:14:28;;;;;;;1.60;1.50;;;10.90;96.30;;;;;;10412096;28;20228;-81
2022/02/20 19:19:31;;;;;;;1.83;1.40;;;10.80;96.10;;;;;;10407266;28;20289;-79
2022/02/20 19:24:33;;;;;;;2.13;1.10;;;10.90;96.40;;;;;;10408671;28;20225;-79
2022/02/20 19:29:37;;;;;;;1.60;1.50;;;10.90;96.00;;;;;;10418161;28;20235;-81
2022/02/20 19:34:39;;;;;;;1.40;1.30;;;11.00;96.10;;;;;;10391081;28;20217;-78
2022/02/20 19:39:42;;;;;;;1.73;1.63;;;11.00;96.10;;;;;;10417399;28;20226;-79
2022/02/20 19:44:46;;;;;;;1.80;1.67;;;11.00;96.10;;;;;;10431660;28;20217;-79
2022/02/20 19:49:48;;;;;;;2.33;2.13;;;11.10;96.30;;;;;;10454349;28;20225;-79
2022/02/20 19:54:53;;;;;;;1.57;1.47;;;11.10;95.90;;;;;;10448727;28;20213;-79
2022/02/20 19:59:57;;;;;;;1.63;1.50;;;11.20;95.80;;;;;;10451699;28;20200;-79
2022/02/20 20:04:59;;;;;;;1.30;1.20;;;11.10;96.40;;;;;;10415998;28;20219;-82
2022/02/20 20:10:02;;;;;;;1.47;1.33;;;11.00;97.00;;;;;;10441351;28;20228;-78
2022/02/20 20:15:07;;;;;;;1.20;1.20;;;11.00;97.40;;;;;;10426110;28;20221;-79
2022/02/20 20:20:12;;;;;;;1.40;1.30;;;10.80;98.00;;;;;;10419915;28;20573;-79
2022/02/20 20:25:19;;;;;;;1.50;1.43;;;10.70;98.10;;;;;;10536542;22;20292;-82
2022/02/20 20:30:23;;;;;;;1.23;1.23;;;10.70;98.40;;;;;;10511861;28;20230;-82
2022/02/20 20:35:27;;;;;;;1.30;1.30;;;10.70;98.20;;;;;;10518453;28;20220;-85
2022/02/20 20:40:32;;;;;;;1.30;1.20;;;10.70;98.00;;;;;;10515342;28;20278;-81
2022/02/20 20:45:35;;;;;;;1.30;1.20;;;10.80;97.90;;;;;;10509009;28;21660;-83
2022/02/20 20:50:38;;;;;;;1.60;1.50;;;10.90;97.30;;;;;;10468545;28;20201;-83
2022/02/20 20:55:40;;;;;;;1.40;1.30;;;10.90;97.00;;;;;;10501141;28;20217;-84
2022/02/20 21:00:44;;;;;;;1.70;1.60;;;10.80;96.60;;;;;;10470351;28;20189;-83
2022/02/20 21:05:47;;;;;;;1.90;1.47;;;10.90;96.80;;;;;;10502778;28;20314;-83
2022/02/20 21:10:50;;;;;;;1.27;1.27;;;10.90;97.20;;;;;;10511846;28;20228;-84
2022/02/20 21:15:53;;;;;;;1.50;1.20;;;10.90;97.30;;;;;;10522134;28;20243;-84
2022/02/20 21:20:55;;;;;;;1.10;1.10;;;10.90;97.80;;;;;;10470115;28;20231;-81
2022/02/20 21:25:57;;;;;;;1.30;1.30;;;10.90;98.10;;;;;;10482994;28;20291;-84
2022/02/20 21:31:01;;;;;;;1.50;1.40;;;11.00;97.50;;;;;;10483385;28;20227;-84
2022/02/20 21:36:04;;;;;;;1.27;1.20;;;10.90;97.60;;;;;;10485495;28;20316;-83
2022/02/20 21:41:06;;;;;;;1.07;1.07;;;11.00;97.50;;;;;;10491463;28;20616;-83
2022/02/20 21:46:10;;;;;;;1.10;1.10;;;11.00;97.60;;;;;;10503458;28;20320;-84
2022/02/20 21:51:12;;;;;;;1.30;1.20;;;11.00;97.40;;;;;;10489933;28;20477;-84
2022/02/20 21:56:14;;;;;;;1.27;1.17;;;11.00;97.30;;;;;;10508128;28;20307;-85
2022/02/20 22:01:18;;;;;;;1.37;1.27;;;11.00;97.50;;;;;;10497609;28;20596;-83
2022/02/20 22:06:20;;;;;;;1.30;1.20;;;10.90;97.80;;;;;;10501257;28;20240;-83
2022/02/20 22:11:22;;;;;;;1.40;1.30;;;10.90;97.60;;;;;;10516273;28;20212;-85
2022/02/20 22:16:26;;;;;;;1.47;1.30;;;10.90;97.60;;;;;;10489165;28;20215;-81
2022/02/20 22:21:28;;;;;;;1.20;1.10;;;10.90;97.80;;;;;;10501622;28;20539;-82
2022/02/20 22:26:30;;;;;;;1.30;1.20;;;10.90;97.80;;;;;;10502265;28;20199;-85
2022/02/20 22:31:35;;;;;;;1.40;1.30;;;11.00;97.60;;;;;;10500344;28;20239;-84
2022/02/20 22:36:38;;;;;;;1.60;1.50;;;11.00;97.60;;;;;;10513089;28;20269;-85
2022/02/20 22:41:40;;;;;;;1.80;1.50;;;10.90;97.80;;;;;;10525765;28;20666;-85
2022/02/20 22:46:45;;;;;;;1.80;1.27;;;10.90;97.80;;;;;;10503545;28;20200;-84
2022/02/20 22:51:47;;;;;;;1.60;1.50;;;10.90;97.20;;;;;;10510577;28;20223;-85
2022/02/20 22:56:50;;;;;;;1.73;1.60;;;11.00;96.90;;;;;;10523910;28;20258;-85
2022/02/20 23:01:53;;;;;;;3.33;1.67;;;10.90;96.80;;;;;;10511872;28;20216;-85
2022/02/20 23:06:56;;;;;;;1.77;1.67;;;10.90;96.80;;;;;;10500971;28;20203;-83
2022/02/20 23:11:59;;;;;;;2.30;1.70;;;11.10;96.70;;;;;;10496981;28;20663;-83
2022/02/20 23:17:03;;;;;;;4.30;1.80;;;11.10;96.40;;;;;;10534426;28;20291;-85
2022/02/20 23:22:05;;;;;;;1.40;1.30;;;11.10;96.40;;;;;;10511617;28;20248;-85
2022/02/20 23:27:07;;;;;;;3.90;1.70;;;11.20;96.30;;;;;;10507131;28;20196;-83
2022/02/20 23:32:11;;;;;;;2.60;2.17;;;11.20;96.30;;;;;;10530837;28;20214;-82
2022/02/20 23:37:13;;;;;;;1.97;1.60;;;11.20;96.50;;;;;;10547627;28;20223;-85
2022/02/20 23:42:15;;;;;;;4.37;1.90;;;11.20;96.30;;;;;;10478155;28;20223;-80
2022/02/20 23:47:19;;;;;;;1.93;1.60;;;11.20;96.50;;;;;;10448283;28;20207;-81
2022/02/20 23:52:21;;;;;;;3.97;2.17;;;11.20;96.20;;;;;;10482612;28;20319;-82
2022/02/20 23:57:24;;;;;;;6.40;2.00;;;11.20;96.00;;;;;;10484790;28;20641;-80
